createdAt,value
2019-05-25T15:16:09.539Z,99101.70
2019-05-25T15:18:41.623Z,99109.53
2019-05-25T15:21:13.683Z,99109.02
2019-05-25T15:23:45.853Z,99111.41
2019-05-25T15:26:18.013Z,99105.25
2019-05-25T15:28:50.126Z,99108.23
2019-05-25T15:33:53.480Z,99116.13
2019-05-25T15:36:25.583Z,99114.06
2019-05-25T15:38:57.625Z,99118.31
2019-05-25T15:41:29.870Z,99120.38
2019-05-25T15:44:01.978Z,99121.47
2019-05-25T15:46:34.395Z,99119.61
2019-05-25T15:49:06.444Z,99116.06
2019-05-25T15:51:38.618Z,99117.94
2019-05-25T15:54:10.963Z,99119.75
2019-05-25T15:56:43.135Z,99120.35
2019-05-25T15:59:15.350Z,99115.39
2019-05-25T16:01:47.555Z,99116.84
2019-05-25T16:04:19.701Z,99108.50
2019-05-25T16:06:51.826Z,99110.16
2019-05-25T16:09:24.139Z,99109.83
2019-05-25T16:11:56.230Z,99112.33
2019-05-25T16:14:28.414Z,99104.77
2019-05-25T16:17:00.462Z,99108.27
2019-05-25T16:19:32.603Z,99112.75
2019-05-25T16:22:04.597Z,99111.78
2019-05-25T16:24:36.725Z,99111.47
2019-05-25T16:27:08.970Z,99114.50
2019-05-25T16:29:41.084Z,99111.94
2019-05-25T16:32:13.189Z,99103.94
2019-05-25T16:34:45.319Z,99103.10
2019-05-25T16:37:17.605Z,99103.50
2019-05-25T16:39:49.991Z,99110.77
2019-05-25T16:42:22.175Z,99106.35
2019-05-25T16:44:54.432Z,99108.41
2019-05-25T16:47:26.480Z,99107.20
2019-05-25T16:49:58.549Z,99104.03
2019-05-25T16:52:30.685Z,99109.66
2019-05-25T16:55:02.843Z,99101.01
2019-05-25T16:57:36.342Z,99105.45
2019-05-25T17:00:09.110Z,99106.83
2019-05-25T17:02:41.513Z,99107.06
2019-05-25T17:05:13.833Z,99111.30
2019-05-25T17:07:46.109Z,99110.12
2019-05-25T17:10:18.413Z,99107.52
2019-05-25T17:12:50.915Z,99108.91
2019-05-25T17:15:23.035Z,99109.53
